sensor_id;sensor_type;location;lat;lon;timestamp;pressure;altitude;pressure_sealevel;temperature;humidity
12763;BME280;6445;52.490;13.378;2024-01-25T00:01:07;54815.66;;;-146.10;91.67
12763;BME280;6445;52.490;13.378;2024-01-25T00:03:33;55005.84;;;-146.10;92.05
12763;BME280;6445;52.490;13.378;2024-01-25T00:05:58;55336.19;;;-146.10;92.52
12763;BME280;6445;52.490;13.378;2024-01-25T00:08:23;55832.78;;;-146.10;93.43
12763;BME280;6445;52.490;13.378;2024-01-25T00:10:48;56381.47;;;-146.10;94.16
12763;BME280;6445;52.490;13.378;2024-01-25T00:13:14;56743.97;;;-146.10;94.88
12763;BME280;6445;52.490;13.378;2024-01-25T00:15:39;57326.88;;;-146.10;95.34
12763;BME280;6445;52.490;13.378;2024-01-25T00:18:04;58074.13;;;-146.10;96.42
12763;BME280;6445;52.490;13.378;2024-01-25T00:20:30;58547.00;;;-146.10;96.36
12763;BME280;6445;52.490;13.378;2024-01-25T00:22:55;58971.81;;;-146.10;97.10
12763;BME280;6445;52.490;13.378;2024-01-25T00:25:20;59474.84;;;-146.10;97.40
12763;BME280;6445;52.490;13.378;2024-01-25T00:27:46;59990.00;;;-146.10;97.87
12763;BME280;6445;52.490;13.378;2024-01-25T00:30:12;60306.72;;;-146.10;98.36
12763;BME280;6445;52.490;13.378;2024-01-25T00:32:37;59410.72;;;-146.10;97.43
12763;BME280;6445;52.490;13.378;2024-01-25T00:35:03;59090.06;;;-146.10;97.00
12763;BME280;6445;52.490;13.378;2024-01-25T00:37:29;59047.97;;;-146.10;97.18
12763;BME280;6445;52.490;13.378;2024-01-25T00:39:54;58853.59;;;-146.10;96.93
12763;BME280;6445;52.490;13.378;2024-01-25T00:42:22;58905.69;;;-146.10;97.03
12763;BME280;6445;52.490;13.378;2024-01-25T00:44:48;58791.47;;;-146.10;96.96
12763;BME280;6445;52.490;13.378;2024-01-25T00:47:14;58741.38;;;-146.10;96.82
12763;BME280;6445;52.490;13.378;2024-01-25T00:49:39;58933.75;;;-146.10;97.10
12763;BME280;6445;52.490;13.378;2024-01-25T00:52:05;59029.94;;;-146.10;97.06
12763;BME280;6445;52.490;13.378;2024-01-25T00:54:30;59380.66;;;-146.10;97.26
12763;BME280;6445;52.490;13.378;2024-01-25T00:56:56;58813.50;;;-146.10;96.76
12763;BME280;6445;52.490;13.378;2024-01-25T00:59:21;58799.47;;;-146.10;96.95
12763;BME280;6445;52.490;13.378;2024-01-25T01:01:48;58963.81;;;-146.10;97.05
12763;BME280;6445;52.490;13.378;2024-01-25T01:04:14;58282.50;;;-146.10;96.25
12763;BME280;6445;52.490;13.378;2024-01-25T01:06:40;57949.91;;;-146.10;96.11
12763;BME280;6445;52.490;13.378;2024-01-25T01:09:05;57933.88;;;-146.10;95.89
12763;BME280;6445;52.490;13.378;2024-01-25T01:11:30;58218.38;;;-146.10;96.21
12763;BME280;6445;52.490;13.378;2024-01-25T01:13:55;57937.88;;;-146.10;96.09
12763;BME280;6445;52.490;13.378;2024-01-25T01:16:21;57497.13;;;-146.10;95.49
12763;BME280;6445;52.490;13.378;2024-01-25T01:18:46;57090.50;;;-146.10;95.02
12763;BME280;6445;52.490;13.378;2024-01-25T01:21:11;56643.84;;;-146.10;94.44
12763;BME280;6445;52.490;13.378;2024-01-25T01:23:36;56277.34;;;-146.10;94.01
12763;BME280;6445;52.490;13.378;2024-01-25T01:26:04;56689.91;;;-146.10;94.79
12763;BME280;6445;52.490;13.378;2024-01-25T01:28:29;56764.00;;;-146.10;94.51
12763;BME280;6445;52.490;13.378;2024-01-25T01:30:54;56996.34;;;-146.10;94.81
12763;BME280;6445;52.490;13.378;2024-01-25T01:33:20;56858.16;;;-146.10;94.85
12763;BME280;6445;52.490;13.378;2024-01-25T01:35:45;56914.22;;;-146.10;94.80
12763;BME280;6445;52.490;13.378;2024-01-25T01:38:10;56812.06;;;-146.10;94.80
12763;BME280;6445;52.490;13.378;2024-01-25T01:40:35;56840.13;;;-146.10;94.75
12763;BME280;6445;52.490;13.378;2024-01-25T01:43:01;56996.34;;;-146.10;94.95
12763;BME280;6445;52.490;13.378;2024-01-25T01:45:27;56972.31;;;-146.10;94.90
12763;BME280;6445;52.490;13.378;2024-01-25T01:47:54;56870.16;;;-146.10;94.70
12763;BME280;6445;52.490;13.378;2024-01-25T01:50:19;56950.28;;;-146.10;94.88
12763;BME280;6445;52.490;13.378;2024-01-25T01:52:45;57040.41;;;-146.10;95.08
12763;BME280;6445;52.490;13.378;2024-01-25T01:55:11;56445.56;;;-146.10;94.33
12763;BME280;6445;52.490;13.378;2024-01-25T01:57:37;56429.53;;;-146.10;94.36
12763;BME280;6445;52.490;13.378;2024-01-25T02:00:03;56371.47;;;-146.10;94.03
12763;BME280;6445;52.490;13.378;2024-01-25T02:02:30;56389.47;;;-146.10;94.01
12763;BME280;6445;52.490;13.378;2024-01-25T02:04:56;56519.66;;;-146.10;94.34
12763;BME280;6445;52.490;13.378;2024-01-25T02:07:21;56177.19;;;-146.10;93.97
12763;BME280;6445;52.490;13.378;2024-01-25T02:09:46;56021.00;;;-146.10;93.73
12763;BME280;6445;52.490;13.378;2024-01-25T02:12:15;56395.50;;;-146.10;94.01
12763;BME280;6445;52.490;13.378;2024-01-25T02:14:42;56481.59;;;-146.10;94.54
12763;BME280;6445;52.490;13.378;2024-01-25T02:17:07;56627.81;;;-146.10;94.43
12763;BME280;6445;52.490;13.378;2024-01-25T02:19:32;56621.81;;;-146.10;94.51
12763;BME280;6445;52.490;13.378;2024-01-25T02:21:58;57014.38;;;-146.10;95.00
12763;BME280;6445;52.490;13.378;2024-01-25T02:24:23;56888.19;;;-146.10;94.94
12763;BME280;6445;52.490;13.378;2024-01-25T02:26:49;56922.25;;;-146.10;94.72
12763;BME280;6445;52.490;13.378;2024-01-25T02:29:14;57180.63;;;-146.10;95.02
12763;BME280;6445;52.490;13.378;2024-01-25T02:31:39;57479.09;;;-146.10;95.54
12763;BME280;6445;52.490;13.378;2024-01-25T02:34:05;57489.13;;;-146.10;95.23
12763;BME280;6445;52.490;13.378;2024-01-25T02:36:30;57611.31;;;-146.10;95.68
12763;BME280;6445;52.490;13.378;2024-01-25T02:38:55;58020.03;;;-146.10;96.17
12763;BME280;6445;52.490;13.378;2024-01-25T02:41:20;58258.44;;;-146.10;96.31
12763;BME280;6445;52.490;13.378;2024-01-25T02:43:45;58691.25;;;-146.10;96.73
12763;BME280;6445;52.490;13.378;2024-01-25T02:46:11;59045.97;;;-146.10;97.05
12763;BME280;6445;52.490;13.378;2024-01-25T02:48:36;59278.44;;;-146.10;97.32
12763;BME280;6445;52.490;13.378;2024-01-25T02:51:01;59609.16;;;-146.10;97.74
12763;BME280;6445;52.490;13.378;2024-01-25T02:53:26;59953.91;;;-146.10;97.95
12763;BME280;6445;52.490;13.378;2024-01-25T02:55:52;59693.34;;;-146.10;97.59
12763;BME280;6445;52.490;13.378;2024-01-25T02:58:17;59957.91;;;-146.10;97.83
12763;BME280;6445;52.490;13.378;2024-01-25T03:00:42;59965.94;;;-146.10;97.95
12763;BME280;6445;52.490;13.378;2024-01-25T03:03:07;59611.16;;;-146.10;97.63
12763;BME280;6445;52.490;13.378;2024-01-25T03:05:33;59504.94;;;-146.10;97.57
12763;BME280;6445;52.490;13.378;2024-01-25T03:07:59;59188.25;;;-146.10;97.36
12763;BME280;6445;52.490;13.378;2024-01-25T03:10:24;59106.09;;;-146.10;97.20
12763;BME280;6445;52.490;13.378;2024-01-25T03:12:50;58208.38;;;-146.10;96.38
12763;BME280;6445;52.490;13.378;2024-01-25T03:15:15;58138.25;;;-146.10;96.33
12763;BME280;6445;52.490;13.378;2024-01-25T03:17:40;57877.78;;;-146.10;96.14
12763;BME280;6445;52.490;13.378;2024-01-25T03:20:06;57324.84;;;-146.10;95.52
12763;BME280;6445;52.490;13.378;2024-01-25T03:22:31;57601.31;;;-146.10;95.61
12763;BME280;6445;52.490;13.378;2024-01-25T03:24:57;57897.81;;;-146.10;96.10
12763;BME280;6445;52.490;13.378;2024-01-25T03:27:22;56970.31;;;-146.10;95.26
12763;BME280;6445;52.490;13.378;2024-01-25T03:29:47;56639.84;;;-146.10;94.49
12763;BME280;6445;52.490;13.378;2024-01-25T03:32:12;56077.06;;;-146.10;93.88
12763;BME280;6445;52.490;13.378;2024-01-25T03:34:38;55894.84;;;-146.10;93.61
12763;BME280;6445;52.490;13.378;2024-01-25T03:37:03;55742.66;;;-146.10;93.74
12763;BME280;6445;52.490;13.378;2024-01-25T03:39:28;55812.75;;;-146.10;93.56
12763;BME280;6445;52.490;13.378;2024-01-25T03:41:54;56197.22;;;-146.10;94.21
12763;BME280;6445;52.490;13.378;2024-01-25T03:44:19;56065.06;;;-146.10;93.83
12763;BME280;6445;52.490;13.378;2024-01-25T03:46:44;56143.16;;;-146.10;93.95
12763;BME280;6445;52.490;13.378;2024-01-25T03:49:10;56045.03;;;-146.10;94.01
12763;BME280;6445;52.490;13.378;2024-01-25T03:51:35;55718.63;;;-146.10;93.26
12763;BME280;6445;52.490;13.378;2024-01-25T03:54:00;55676.59;;;-146.10;93.39
12763;BME280;6445;52.490;13.378;2024-01-25T03:56:25;55788.72;;;-146.10;93.41
12763;BME280;6445;52.490;13.378;2024-01-25T03:58:52;55760.69;;;-146.10;93.61
12763;BME280;6445;52.490;13.378;2024-01-25T04:01:17;55552.44;;;-146.10;93.07
12763;BME280;6445;52.490;13.378;2024-01-25T04:03:42;55804.72;;;-146.10;93.65
12763;BME280;6445;52.490;13.378;2024-01-25T04:06:07;55708.63;;;-146.10;93.59
12763;BME280;6445;52.490;13.378;2024-01-25T04:08:33;55776.69;;;-146.10;93.57
12763;BME280;6445;52.490;13.378;2024-01-25T04:10:58;56131.16;;;-146.10;94.26
12763;BME280;6445;52.490;13.378;2024-01-25T04:13:23;56167.19;;;-146.10;94.14
12763;BME280;6445;52.490;13.378;2024-01-25T04:15:48;56401.50;;;-146.10;94.66
12763;BME280;6445;52.490;13.378;2024-01-25T04:18:14;56451.56;;;-146.10;94.40
12763;BME280;6445;52.490;13.378;2024-01-25T04:20:41;56707.94;;;-146.10;94.84
12763;BME280;6445;52.490;13.378;2024-01-25T04:23:06;56725.94;;;-146.10;94.70
12763;BME280;6445;52.490;13.378;2024-01-25T04:25:31;56914.22;;;-146.10;94.95
12763;BME280;6445;52.490;13.378;2024-01-25T04:27:57;57168.63;;;-146.10;95.51
12763;BME280;6445;52.490;13.378;2024-01-25T04:30:22;57336.88;;;-146.10;95.37
12763;BME280;6445;52.490;13.378;2024-01-25T04:32:47;57242.72;;;-146.10;95.42
12763;BME280;6445;52.490;13.378;2024-01-25T04:35:12;57316.84;;;-146.10;95.54
12763;BME280;6445;52.490;13.378;2024-01-25T04:37:38;57425.03;;;-146.10;95.76
12763;BME280;6445;52.490;13.378;2024-01-25T04:40:03;57419.00;;;-146.10;95.70
12763;BME280;6445;52.490;13.378;2024-01-25T04:42:30;57795.63;;;-146.10;96.35
12763;BME280;6445;52.490;13.378;2024-01-25T04:44:55;57809.66;;;-146.10;96.27
12763;BME280;6445;52.490;13.378;2024-01-25T04:47:20;57707.50;;;-146.10;95.94
12763;BME280;6445;52.490;13.378;2024-01-25T04:49:45;57709.50;;;-146.10;96.17
12763;BME280;6445;52.490;13.378;2024-01-25T04:52:11;57080.47;;;-146.10;95.18
12763;BME280;6445;52.490;13.378;2024-01-25T04:54:36;57000.34;;;-146.10;95.40
12763;BME280;6445;52.490;13.378;2024-01-25T04:57:01;57228.72;;;-146.10;95.48
12763;BME280;6445;52.490;13.378;2024-01-25T04:59:31;57747.56;;;-146.10;95.92
12763;BME280;6445;52.490;13.378;2024-01-25T05:01:56;58276.50;;;-146.10;96.79
12763;BME280;6445;52.490;13.378;2024-01-25T05:04:23;58931.75;;;-146.10;96.98
12763;BME280;6445;52.490;13.378;2024-01-25T05:06:48;58841.56;;;-146.10;97.04
12763;BME280;6445;52.490;13.378;2024-01-25T05:09:13;58955.78;;;-146.10;97.22
12763;BME280;6445;52.490;13.378;2024-01-25T05:11:39;59607.16;;;-146.10;97.67
12763;BME280;6445;52.490;13.378;2024-01-25T05:14:05;59078.03;;;-146.10;97.53
12763;BME280;6445;52.490;13.378;2024-01-25T05:16:30;59492.91;;;-146.10;97.72
12763;BME280;6445;52.490;13.378;2024-01-25T05:18:55;59322.53;;;-146.10;97.54
12763;BME280;6445;52.490;13.378;2024-01-25T05:21:21;59565.06;;;-146.10;97.66
12763;BME280;6445;52.490;13.378;2024-01-25T05:23:46;59298.50;;;-146.10;97.60
12763;BME280;6445;52.490;13.378;2024-01-25T05:26:11;58500.91;;;-146.10;96.85
12763;BME280;6445;52.490;13.378;2024-01-25T05:28:36;59019.91;;;-146.10;97.32
12763;BME280;6445;52.490;13.378;2024-01-25T05:31:02;58643.19;;;-146.10;96.95
12763;BME280;6445;52.490;13.378;2024-01-25T05:33:27;57541.22;;;-146.10;95.72
12763;BME280;6445;52.490;13.378;2024-01-25T05:35:52;56990.34;;;-146.10;95.18
12763;BME280;6445;52.490;13.378;2024-01-25T05:38:17;56812.06;;;-146.10;95.06
12763;BME280;6445;52.490;13.378;2024-01-25T05:40:43;56273.31;;;-146.10;94.48
12763;BME280;6445;52.490;13.378;2024-01-25T05:43:08;56069.06;;;-146.10;94.31
12763;BME280;6445;52.490;13.378;2024-01-25T05:45:33;55878.81;;;-146.10;93.86
12763;BME280;6445;52.490;13.378;2024-01-25T05:47:58;55736.66;;;-146.10;93.60
12763;BME280;6445;52.490;13.378;2024-01-25T05:50:24;55916.88;;;-146.10;93.83
12763;BME280;6445;52.490;13.378;2024-01-25T05:52:49;55808.75;;;-146.10;93.76
12763;BME280;6445;52.490;13.378;2024-01-25T05:55:14;55994.97;;;-146.10;94.05
12763;BME280;6445;52.490;13.378;2024-01-25T05:57:43;56073.06;;;-146.10;94.08
12763;BME280;6445;52.490;13.378;2024-01-25T06:00:11;55972.94;;;-146.10;93.81
12763;BME280;6445;52.490;13.378;2024-01-25T06:02:38;56203.22;;;-146.10;94.09
12763;BME280;6445;52.490;13.378;2024-01-25T06:05:03;56587.75;;;-146.10;94.68
12763;BME280;6445;52.490;13.378;2024-01-25T06:07:28;57088.50;;;-146.10;95.51
12763;BME280;6445;52.490;13.378;2024-01-25T06:09:54;57002.34;;;-146.10;95.28
12763;BME280;6445;52.490;13.378;2024-01-25T06:12:19;56802.06;;;-146.10;95.07
12763;BME280;6445;52.490;13.378;2024-01-25T06:14:44;57112.53;;;-146.10;95.67
12763;BME280;6445;52.490;13.378;2024-01-25T06:17:10;57230.72;;;-146.10;95.66
12763;BME280;6445;52.490;13.378;2024-01-25T06:19:35;57707.50;;;-146.10;96.11
12763;BME280;6445;52.490;13.378;2024-01-25T06:22:00;57701.47;;;-146.10;95.93
12763;BME280;6445;52.490;13.378;2024-01-25T06:24:26;57503.16;;;-146.10;95.73
12763;BME280;6445;52.490;13.378;2024-01-25T06:26:53;57523.19;;;-146.10;96.12
12763;BME280;6445;52.490;13.378;2024-01-25T06:29:18;57937.88;;;-146.10;96.44
12763;BME280;6445;52.490;13.378;2024-01-25T06:31:44;57425.03;;;-146.10;95.67
12763;BME280;6445;52.490;13.378;2024-01-25T06:34:10;57769.59;;;-146.10;96.35
12763;BME280;6445;52.490;13.378;2024-01-25T06:36:35;57913.84;;;-146.10;96.25
12763;BME280;6445;52.490;13.378;2024-01-25T06:39:01;56629.81;;;-146.10;94.74
12763;BME280;6445;52.490;13.378;2024-01-25T06:41:26;56687.91;;;-146.10;94.85
12763;BME280;6445;52.490;13.378;2024-01-25T06:43:51;57068.47;;;-146.10;95.34
12763;BME280;6445;52.490;13.378;2024-01-25T06:46:16;56735.97;;;-146.10;95.08
12763;BME280;6445;52.490;13.378;2024-01-25T06:48:42;57056.44;;;-146.10;95.48
12763;BME280;6445;52.490;13.378;2024-01-25T06:51:07;57030.41;;;-146.10;95.49
12763;BME280;6445;52.490;13.378;2024-01-25T06:53:32;56800.06;;;-146.10;94.88
12763;BME280;6445;52.490;13.378;2024-01-25T06:55:58;56461.59;;;-146.10;94.50
12763;BME280;6445;52.490;13.378;2024-01-25T06:58:23;56207.25;;;-146.10;94.36
12763;BME280;6445;52.490;13.378;2024-01-25T07:00:48;56081.06;;;-146.10;94.15
12763;BME280;6445;52.490;13.378;2024-01-25T07:03:14;55990.97;;;-146.10;93.93
12763;BME280;6445;52.490;13.378;2024-01-25T07:05:40;55678.59;;;-146.10;93.21
12763;BME280;6445;52.490;13.378;2024-01-25T07:08:05;55055.91;;;-146.10;92.38
12763;BME280;6445;52.490;13.378;2024-01-25T07:10:32;55314.16;;;-146.10;92.82
12763;BME280;6445;52.490;13.378;2024-01-25T07:12:57;55412.28;;;-146.10;93.04
12763;BME280;6445;52.490;13.378;2024-01-25T07:15:23;55328.19;;;-146.10;92.90
12763;BME280;6445;52.490;13.378;2024-01-25T07:17:48;55332.19;;;-146.10;92.89
12763;BME280;6445;52.490;13.378;2024-01-25T07:20:13;55364.22;;;-146.10;92.95
12763;BME280;6445;52.490;13.378;2024-01-25T07:22:39;55520.41;;;-146.10;93.19
12763;BME280;6445;52.490;13.378;2024-01-25T07:25:05;55872.81;;;-146.10;93.79
12763;BME280;6445;52.490;13.378;2024-01-25T07:27:30;55982.94;;;-146.10;93.83
12763;BME280;6445;52.490;13.378;2024-01-25T07:29:56;55870.81;;;-146.10;93.73
12763;BME280;6445;52.490;13.378;2024-01-25T07:32:21;56033.03;;;-146.10;93.83
12763;BME280;6445;52.490;13.378;2024-01-25T07:34:46;55692.59;;;-146.10;93.42
12763;BME280;6445;52.490;13.378;2024-01-25T07:37:12;56197.22;;;-146.10;93.95
12763;BME280;6445;52.490;13.378;2024-01-25T07:39:38;55722.63;;;-146.10;93.41
12763;BME280;6445;52.490;13.378;2024-01-25T07:42:03;55894.84;;;-146.10;93.61
12763;BME280;6445;52.490;13.378;2024-01-25T07:44:28;55868.81;;;-146.10;93.85
12763;BME280;6445;52.490;13.378;2024-01-25T07:46:53;56047.03;;;-146.10;93.80
12763;BME280;6445;52.490;13.378;2024-01-25T07:49:19;55764.69;;;-146.10;93.20
12763;BME280;6445;52.490;13.378;2024-01-25T07:51:44;56207.25;;;-146.10;94.11
12763;BME280;6445;52.490;13.378;2024-01-25T07:54:09;56153.16;;;-146.10;94.24
12763;BME280;6445;52.490;13.378;2024-01-25T07:56:35;56099.09;;;-146.10;93.88
12763;BME280;6445;52.490;13.378;2024-01-25T07:59:00;55876.81;;;-146.10;93.64
12763;BME280;6445;52.490;13.378;2024-01-25T08:01:25;55860.81;;;-146.10;93.60
12763;BME280;6445;52.490;13.378;2024-01-25T08:03:51;56309.38;;;-146.10;94.17
12763;BME280;6445;52.490;13.378;2024-01-25T08:06:16;55828.75;;;-146.10;93.67
12763;BME280;6445;52.490;13.378;2024-01-25T08:08:41;55676.59;;;-146.10;93.23
12763;BME280;6445;52.490;13.378;2024-01-25T08:11:06;55150.00;;;-146.10;92.38
12763;BME280;6445;52.490;13.378;2024-01-25T08:13:33;55115.97;;;-146.10;92.17
12763;BME280;6445;52.490;13.378;2024-01-25T08:15:58;54927.78;;;-146.10;92.01
12763;BME280;6445;52.490;13.378;2024-01-25T08:18:23;55007.84;;;-146.10;92.12
12763;BME280;6445;52.490;13.378;2024-01-25T08:20:49;54857.72;;;-146.10;91.86
12763;BME280;6445;52.490;13.378;2024-01-25T08:23:16;54737.59;;;-146.10;91.37
12763;BME280;6445;52.490;13.378;2024-01-25T08:25:41;54551.41;;;-146.10;91.06
12763;BME280;6445;52.490;13.378;2024-01-25T08:28:07;54467.34;;;-146.10;90.97
12763;BME280;6445;52.490;13.378;2024-01-25T08:30:32;54303.22;;;-146.10;90.54
12763;BME280;6445;52.490;13.378;2024-01-25T08:32:57;54265.19;;;-146.10;90.41
12763;BME280;6445;52.490;13.378;2024-01-25T08:35:22;53980.94;;;-146.10;89.39
12763;BME280;6445;52.490;13.378;2024-01-25T08:37:49;53884.88;;;-146.10;89.44
12763;BME280;6445;52.490;13.378;2024-01-25T08:40:14;53842.84;;;-146.10;89.08
12763;BME280;6445;52.490;13.378;2024-01-25T08:42:39;53754.78;;;-146.10;88.87
12763;BME280;6445;52.490;13.378;2024-01-25T08:45:05;53892.88;;;-146.10;89.25
12763;BME280;6445;52.490;13.378;2024-01-25T08:47:34;53794.81;;;-146.10;89.24
12763;BME280;6445;52.490;13.378;2024-01-25T08:49:59;53898.88;;;-146.10;89.26
12763;BME280;6445;52.490;13.378;2024-01-25T08:52:24;53820.84;;;-146.10;89.14
12763;BME280;6445;52.490;13.378;2024-01-25T08:54:50;53882.88;;;-146.10;89.38
12763;BME280;6445;52.490;13.378;2024-01-25T08:57:15;53806.81;;;-146.10;89.18
12763;BME280;6445;52.490;13.378;2024-01-25T08:59:41;53778.81;;;-146.10;89.05
12763;BME280;6445;52.490;13.378;2024-01-25T09:02:06;53796.81;;;-146.10;88.90
12763;BME280;6445;52.490;13.378;2024-01-25T09:04:32;53668.72;;;-146.10;88.68
12763;BME280;6445;52.490;13.378;2024-01-25T09:06:58;53608.69;;;-146.10;88.56
12763;BME280;6445;52.490;13.378;2024-01-25T09:09:23;53838.84;;;-146.10;89.09
12763;BME280;6445;52.490;13.378;2024-01-25T09:11:48;53856.88;;;-146.10;89.02
12763;BME280;6445;52.490;13.378;2024-01-25T09:14:14;53968.94;;;-146.10;89.54
12763;BME280;6445;52.490;13.378;2024-01-25T09:16:39;53934.91;;;-146.10;89.51
12763;BME280;6445;52.490;13.378;2024-01-25T09:19:04;54008.97;;;-146.10;89.62
12763;BME280;6445;52.490;13.378;2024-01-25T09:21:30;54083.03;;;-146.10;89.86
12763;BME280;6445;52.490;13.378;2024-01-25T09:23:55;54121.06;;;-146.10;90.06
12763;BME280;6445;52.490;13.378;2024-01-25T09:26:20;54277.19;;;-146.10;90.34
12763;BME280;6445;52.490;13.378;2024-01-25T09:28:46;54261.16;;;-146.10;90.21
12763;BME280;6445;52.490;13.378;2024-01-25T09:31:11;54373.25;;;-146.10;90.60
12763;BME280;6445;52.490;13.378;2024-01-25T09:33:36;54319.22;;;-146.10;90.44
12763;BME280;6445;52.490;13.378;2024-01-25T09:36:02;54219.13;;;-146.10;90.02
12763;BME280;6445;52.490;13.378;2024-01-25T09:38:27;54285.19;;;-146.10;90.39
12763;BME280;6445;52.490;13.378;2024-01-25T09:40:52;54411.28;;;-146.10;90.23
12763;BME280;6445;52.490;13.378;2024-01-25T09:43:18;54335.22;;;-146.10;90.36
12763;BME280;6445;52.490;13.378;2024-01-25T09:45:46;54233.16;;;-146.10;90.14
12763;BME280;6445;52.490;13.378;2024-01-25T09:48:12;54283.19;;;-146.10;90.31
12763;BME280;6445;52.490;13.378;2024-01-25T09:50:38;54123.06;;;-146.10;89.71
12763;BME280;6445;52.490;13.378;2024-01-25T09:53:04;54389.28;;;-146.10;90.50
12763;BME280;6445;52.490;13.378;2024-01-25T09:55:30;54415.31;;;-146.10;90.61
12763;BME280;6445;52.490;13.378;2024-01-25T09:57:57;54411.28;;;-146.10;90.51
12763;BME280;6445;52.490;13.378;2024-01-25T10:00:23;54383.28;;;-146.10;90.77
12763;BME280;6445;52.490;13.378;2024-01-25T10:02:49;54171.09;;;-146.10;90.02
12763;BME280;6445;52.490;13.378;2024-01-25T10:05:17;54341.25;;;-146.10;90.62
12763;BME280;6445;52.490;13.378;2024-01-25T10:07:44;54425.31;;;-146.10;90.71
12763;BME280;6445;52.490;13.378;2024-01-25T10:10:11;54685.53;;;-146.10;91.10
12763;BME280;6445;52.490;13.378;2024-01-25T10:12:38;54521.41;;;-146.10;90.73
12763;BME280;6445;52.490;13.378;2024-01-25T10:15:04;54509.38;;;-146.10;90.93
12763;BME280;6445;52.490;13.378;2024-01-25T10:17:30;54405.28;;;-146.10;90.32
12763;BME280;6445;52.490;13.378;2024-01-25T10:19:55;54461.34;;;-146.10;90.61
12763;BME280;6445;52.490;13.378;2024-01-25T10:22:21;54405.28;;;-146.10;90.35
12763;BME280;6445;52.490;13.378;2024-01-25T10:24:46;54201.13;;;-146.10;89.72
12763;BME280;6445;52.490;13.378;2024-01-25T10:27:11;53812.84;;;-146.10;88.41
12763;BME280;6445;52.490;13.378;2024-01-25T10:29:37;53738.78;;;-146.10;88.60
12763;BME280;6445;52.490;13.378;2024-01-25T10:32:03;53648.72;;;-146.10;88.09
12763;BME280;6445;52.490;13.378;2024-01-25T10:34:30;53520.63;;;-146.10;87.36
12763;BME280;6445;52.490;13.378;2024-01-25T10:36:57;53296.50;;;-146.10;86.79
12763;BME280;6445;52.490;13.378;2024-01-25T10:39:24;53376.53;;;-146.10;86.90
12763;BME280;6445;52.490;13.378;2024-01-25T10:41:50;53276.50;;;-146.10;86.66
12763;BME280;6445;52.490;13.378;2024-01-25T10:44:19;53378.53;;;-146.10;87.12
12763;BME280;6445;52.490;13.378;2024-01-25T10:46:48;53366.53;;;-146.10;87.03
12763;BME280;6445;52.490;13.378;2024-01-25T10:49:14;53416.56;;;-146.10;87.14
12763;BME280;6445;52.490;13.378;2024-01-25T10:51:43;53472.59;;;-146.10;87.35
12763;BME280;6445;52.490;13.378;2024-01-25T10:54:08;53436.59;;;-146.10;87.36
12763;BME280;6445;52.490;13.378;2024-01-25T10:56:38;53640.72;;;-146.10;87.88
12763;BME280;6445;52.490;13.378;2024-01-25T10:59:03;53540.66;;;-146.10;87.21
12763;BME280;6445;52.490;13.378;2024-01-25T11:01:29;53226.47;;;-146.10;86.28
12763;BME280;6445;52.490;13.378;2024-01-25T11:03:54;53306.50;;;-146.10;86.53
12763;BME280;6445;52.490;13.378;2024-01-25T11:06:21;52996.34;;;-146.10;84.95
12763;BME280;6445;52.490;13.378;2024-01-25T11:08:47;53036.34;;;-146.10;85.19
12763;BME280;6445;52.490;13.378;2024-01-25T11:11:13;52958.31;;;-146.10;84.54
12763;BME280;6445;52.490;13.378;2024-01-25T11:13:41;52786.25;;;-146.10;83.54
12763;BME280;6445;52.490;13.378;2024-01-25T11:16:16;52702.19;;;-146.10;83.27
12763;BME280;6445;52.490;13.378;2024-01-25T11:18:54;52824.25;;;-146.10;84.34
12763;BME280;6445;52.490;13.378;2024-01-25T11:21:28;52828.25;;;-146.10;84.02
12763;BME280;6445;52.490;13.378;2024-01-25T11:24:01;52678.19;;;-146.10;83.61
12763;BME280;6445;52.490;13.378;2024-01-25T11:26:27;52708.22;;;-146.10;83.25
12763;BME280;6445;52.490;13.378;2024-01-25T11:28:52;52736.22;;;-146.10;83.70
12763;BME280;6445;52.490;13.378;2024-01-25T11:31:18;52632.19;;;-146.10;82.73
12763;BME280;6445;52.490;13.378;2024-01-25T11:33:43;52574.16;;;-146.10;82.04
12763;BME280;6445;52.490;13.378;2024-01-25T11:36:09;52488.13;;;-146.10;81.72
12763;BME280;6445;52.490;13.378;2024-01-25T11:38:36;52400.09;;;-146.10;80.65
12763;BME280;6445;52.490;13.378;2024-01-25T11:41:01;52382.09;;;-146.10;80.38
12763;BME280;6445;52.490;13.378;2024-01-25T11:43:27;52368.06;;;-146.10;80.49
12763;BME280;6445;52.490;13.378;2024-01-25T11:45:52;52378.06;;;-146.10;80.86
12763;BME280;6445;52.490;13.378;2024-01-25T11:48:18;52490.13;;;-146.10;82.15
12763;BME280;6445;52.490;13.378;2024-01-25T11:50:43;52534.13;;;-146.10;82.33
12763;BME280;6445;52.490;13.378;2024-01-25T11:53:09;52556.16;;;-146.10;82.50
12763;BME280;6445;52.490;13.378;2024-01-25T11:55:35;52620.16;;;-146.10;82.90
12763;BME280;6445;52.490;13.378;2024-01-25T11:58:00;52670.19;;;-146.10;83.23
12763;BME280;6445;52.490;13.378;2024-01-25T12:00:25;52602.16;;;-146.10;82.56
12763;BME280;6445;52.490;13.378;2024-01-25T12:02:51;52630.16;;;-146.10;82.90
12763;BME280;6445;52.490;13.378;2024-01-25T12:05:16;52510.13;;;-146.10;81.41
12763;BME280;6445;52.490;13.378;2024-01-25T12:07:41;52462.09;;;-146.10;81.41
12763;BME280;6445;52.490;13.378;2024-01-25T12:10:08;52408.09;;;-146.10;80.74
12763;BME280;6445;52.490;13.378;2024-01-25T12:12:36;52354.06;;;-146.10;80.00
12763;BME280;6445;52.490;13.378;2024-01-25T12:15:04;52150.00;;;-146.10;76.69
12763;BME280;6445;52.490;13.378;2024-01-25T12:17:30;51959.97;;;-146.10;73.42
12763;BME280;6445;52.490;13.378;2024-01-25T12:19:57;52059.97;;;-146.10;75.69
12763;BME280;6445;52.490;13.378;2024-01-25T12:22:23;52142.00;;;-146.10;77.43
12763;BME280;6445;52.490;13.378;2024-01-25T12:24:48;52164.00;;;-146.10;78.20
12763;BME280;6445;52.490;13.378;2024-01-25T12:27:17;52250.03;;;-146.10;79.00
12763;BME280;6445;52.490;13.378;2024-01-25T12:32:08;52300.06;;;-146.10;79.79
12763;BME280;6445;52.490;13.378;2024-01-25T12:34:34;52240.03;;;-146.10;78.35